createdAt,value
2022-11-28T00:04:02.153Z,69.85
2022-11-28T00:06:30.222Z,56.83
2022-11-28T00:11:27.319Z,59.33
2022-11-28T00:13:55.116Z,56.65
2022-11-28T00:16:24.069Z,67.35
2022-11-28T00:18:53.913Z,70.40
2022-11-28T00:21:21.837Z,58.53
2022-11-28T00:23:50.054Z,74.50
2022-11-28T00:28:48.094Z,64.55
2022-11-28T00:31:17.864Z,54.35
2022-11-28T00:33:45.684Z,57.15
2022-11-28T00:36:13.828Z,60.72
2022-11-28T00:38:41.553Z,69.22
2022-11-28T00:41:13.877Z,83.20
2022-11-28T00:43:42.730Z,66.18
2022-11-28T00:46:11.290Z,68.80
2022-11-28T00:48:38.872Z,76.57
2022-11-28T00:51:07.657Z,74.32
2022-11-28T00:53:36.210Z,72.88
2022-11-28T00:56:07.886Z,80.57
2022-11-28T00:58:36.136Z,63.13
2022-11-28T01:01:15.253Z,68.75
2022-11-28T01:03:43.241Z,73.35
2022-11-28T01:06:11.690Z,65.75
2022-11-28T01:08:39.310Z,65.85
2022-11-28T01:11:12.971Z,66.32
2022-11-28T01:13:40.960Z,52.67
2022-11-28T01:16:09.727Z,65.72
2022-11-28T01:18:38.123Z,72.05
2022-11-28T01:21:07.174Z,91.97
2022-11-28T01:23:35.445Z,73.45
2022-11-28T01:26:06.418Z,63.25
2022-11-28T01:28:35.100Z,70.03
2022-11-28T01:31:07.675Z,65.68
2022-11-28T01:33:36.014Z,78.78
2022-11-28T01:38:31.849Z,73.75
2022-11-28T01:41:02.097Z,63.35
2022-11-28T01:43:29.540Z,70.18
2022-11-28T01:45:57.342Z,72.53
2022-11-28T01:48:41.361Z,56.30
2022-11-28T01:51:10.200Z,67.50
2022-11-28T01:53:42.272Z,61.70
2022-11-28T01:56:15.385Z,73.97
2022-11-28T01:58:47.221Z,63.17
2022-11-28T02:01:15.450Z,54.97
2022-11-28T02:06:20.121Z,68.18
2022-11-28T02:08:52.099Z,50.38
2022-11-28T02:11:40.614Z,72.40
2022-11-28T02:14:49.939Z,69.03
2022-11-28T02:17:51.054Z,69.93
2022-11-28T02:20:55.509Z,58.63
2022-11-28T02:23:55.295Z,58.20
2022-11-28T02:26:53.188Z,59.25
2022-11-28T02:32:44.933Z,64.95
2022-11-28T02:35:30.774Z,55.55
2022-11-28T02:38:09.994Z,50.40
2022-11-28T02:41:03.565Z,66.20
2022-11-28T02:43:44.573Z,58.00
2022-11-28T02:46:29.155Z,65.20
2022-11-28T02:49:07.350Z,56.53
2022-11-28T02:51:40.530Z,63.15
2022-11-28T02:54:11.807Z,55.53
2022-11-28T02:56:39.477Z,55.03
2022-11-28T02:59:43.964Z,56.60
2022-11-28T03:02:15.520Z,49.17
2022-11-28T03:04:48.433Z,55.25
2022-11-28T03:07:22.237Z,67.15
2022-11-28T03:09:58.850Z,43.15
2022-11-28T03:12:46.265Z,62.63
2022-11-28T03:15:17.485Z,53.45
2022-11-28T03:17:54.156Z,60.80
2022-11-28T03:20:35.159Z,61.05
2022-11-28T03:23:18.190Z,67.35
2022-11-28T03:26:07.174Z,61.42
2022-11-28T03:28:50.116Z,62.60
2022-11-28T03:31:22.737Z,71.15
2022-11-28T03:34:00.270Z,61.47
2022-11-28T03:36:52.066Z,64.10
2022-11-28T03:39:24.441Z,56.05
2022-11-28T03:41:57.021Z,57.38
2022-11-28T03:44:31.593Z,66.68
2022-11-28T03:47:02.317Z,66.30
2022-11-28T03:49:33.662Z,76.55
2022-11-28T03:52:06.533Z,65.32
2022-11-28T03:54:52.469Z,72.20
2022-11-28T03:57:49.192Z,73.32
2022-11-28T04:00:17.169Z,68.30
2022-11-28T04:03:06.650Z,77.97
2022-11-28T04:05:57.397Z,63.33
2022-11-28T04:08:32.641Z,80.35
2022-11-28T04:11:13.292Z,68.90
2022-11-28T04:13:56.329Z,63.33
2022-11-28T04:16:50.578Z,56.33
2022-11-28T04:19:27.802Z,65.45
2022-11-28T04:22:01.990Z,55.42
2022-11-28T04:24:53.343Z,51.15
2022-11-28T04:27:27.543Z,63.30
2022-11-28T04:29:58.981Z,47.30
2022-11-28T04:32:28.398Z,50.88
2022-11-28T04:35:03.201Z,52.20
2022-11-28T04:37:32.396Z,66.00
2022-11-28T04:40:01.001Z,45.63
2022-11-28T04:42:37.556Z,62.00
2022-11-28T04:45:05.353Z,47.95
2022-11-28T04:47:32.833Z,53.55
2022-11-28T04:50:00.474Z,60.33
2022-11-28T04:52:53.040Z,74.70
2022-11-28T04:55:46.733Z,77.70
2022-11-28T04:58:41.949Z,66.53
2022-11-28T05:01:14.300Z,60.75
2022-11-28T05:03:42.976Z,67.97
2022-11-28T05:06:10.676Z,63.92
2022-11-28T05:08:38.106Z,76.93
2022-11-28T05:11:05.594Z,72.07
2022-11-28T05:13:33.025Z,49.15
2022-11-28T05:16:01.518Z,58.65
2022-11-28T05:18:29.048Z,54.08
2022-11-28T05:20:58.909Z,44.78
2022-11-28T05:23:26.439Z,72.60
2022-11-28T05:25:54.189Z,48.45
2022-11-28T05:28:21.717Z,47.80
2022-11-28T05:30:58.153Z,51.88
2022-11-28T05:33:25.562Z,34.15
2022-11-28T05:35:53.015Z,50.33
2022-11-28T05:38:20.564Z,43.00
2022-11-28T05:40:48.009Z,56.38
2022-11-28T05:43:15.488Z,52.90
2022-11-28T05:45:44.487Z,61.22
2022-11-28T05:48:12.025Z,50.88
2022-11-28T05:50:40.913Z,61.08
2022-11-28T05:53:09.469Z,57.83
2022-11-28T05:55:40.638Z,48.10
2022-11-28T05:58:08.328Z,66.97
2022-11-28T06:00:38.534Z,54.55
2022-11-28T06:03:06.179Z,53.50
2022-11-28T06:05:43.252Z,56.78
2022-11-28T06:08:12.709Z,62.83
2022-11-28T06:10:40.701Z,70.13
2022-11-28T06:13:08.893Z,63.47
2022-11-28T06:18:06.215Z,38.97
2022-11-28T06:20:35.734Z,67.18
2022-11-28T06:23:03.151Z,76.97
2022-11-28T06:25:30.625Z,53.70
2022-11-28T06:27:58.108Z,66.57
2022-11-28T06:30:25.799Z,72.43
2022-11-28T06:32:53.205Z,50.72
2022-11-28T06:35:20.686Z,58.38
2022-11-28T06:37:48.226Z,67.03
2022-11-28T06:40:15.828Z,55.38
2022-11-28T06:42:43.236Z,47.92
2022-11-28T06:45:10.992Z,57.40
2022-11-28T06:47:38.383Z,77.57
2022-11-28T06:50:08.794Z,79.68
2022-11-28T06:52:36.484Z,70.35
2022-11-28T06:55:04.017Z,56.05
2022-11-28T06:57:32.711Z,44.38
2022-11-28T07:00:00.198Z,57.13
2022-11-28T07:02:27.947Z,54.63
2022-11-28T07:04:55.377Z,55.05
2022-11-28T07:07:22.786Z,55.60
2022-11-28T07:09:51.941Z,56.40
2022-11-28T07:12:19.442Z,51.40
2022-11-28T07:14:47.055Z,47.83
2022-11-28T07:17:14.434Z,64.85
2022-11-28T07:19:42.304Z,60.83
2022-11-28T07:22:11.634Z,52.50
2022-11-28T07:24:39.231Z,50.67
2022-11-28T07:27:06.612Z,53.17
2022-11-28T07:29:36.765Z,49.58
2022-11-28T07:32:06.188Z,50.92
2022-11-28T07:34:34.488Z,62.08
2022-11-28T07:37:01.951Z,53.47
2022-11-28T07:39:29.594Z,59.17
2022-11-28T07:41:56.974Z,53.50
2022-11-28T07:44:24.461Z,58.58
2022-11-28T07:46:51.953Z,50.25
2022-11-28T07:49:19.391Z,70.85
2022-11-28T07:51:47.168Z,71.60
2022-11-28T07:54:14.581Z,60.33
2022-11-28T07:57:12.133Z,41.47
2022-11-28T07:59:29.460Z,63.15
2022-11-28T08:01:56.949Z,46.85
2022-11-28T08:04:24.574Z,66.10
2022-11-28T08:06:52.044Z,51.72
2022-11-28T08:09:19.490Z,48.22
2022-11-28T08:11:46.886Z,55.50
2022-11-28T08:14:14.369Z,59.75
2022-11-28T08:16:45.048Z,62.15
2022-11-28T08:19:13.222Z,54.33
2022-11-28T08:21:40.713Z,52.92
2022-11-28T08:24:08.733Z,57.30
2022-11-28T08:29:04.797Z,59.60
2022-11-28T08:31:38.233Z,52.22
2022-11-28T08:34:09.999Z,61.05
2022-11-28T08:36:37.456Z,57.85
2022-11-28T08:41:59.619Z,65.20
2022-11-28T08:44:30.297Z,54.90
2022-11-28T08:46:58.711Z,52.15
2022-11-28T08:49:26.089Z,57.78
2022-11-28T08:51:53.506Z,67.63
2022-11-28T08:54:21.086Z,50.63
2022-11-28T08:56:48.668Z,60.20
2022-11-28T08:59:16.069Z,63.58
2022-11-28T09:01:43.569Z,70.03
2022-11-28T09:04:11.125Z,52.20
2022-11-28T09:06:39.766Z,58.97
2022-11-28T09:09:09.047Z,88.35
2022-11-28T09:11:37.589Z,122.00
2022-11-28T09:14:05.371Z,140.10
2022-11-28T09:16:33.009Z,113.75
2022-11-28T09:19:00.517Z,79.43
2022-11-28T09:21:28.104Z,70.13
2022-11-28T09:23:56.219Z,72.65
2022-11-28T09:26:25.795Z,58.35
2022-11-28T09:28:54.796Z,58.70
2022-11-28T09:31:22.825Z,60.47
2022-11-28T09:36:20.886Z,45.97
2022-11-28T09:38:48.668Z,62.40
2022-11-28T09:41:41.032Z,56.60
2022-11-28T09:44:26.498Z,56.20
2022-11-28T09:46:58.948Z,55.42
2022-11-28T09:49:40.679Z,54.45
2022-11-28T09:52:48.981Z,43.28
2022-11-28T09:57:50.358Z,50.28
2022-11-28T10:00:22.733Z,47.13
2022-11-28T10:02:58.155Z,47.58
2022-11-28T10:05:45.784Z,44.65
2022-11-28T10:08:32.413Z,51.15
2022-11-28T10:11:41.809Z,53.70
2022-11-28T10:14:38.515Z,55.05
2022-11-28T10:17:23.592Z,55.35
2022-11-28T10:19:56.937Z,48.05
2022-11-28T10:22:37.564Z,37.15
2022-11-28T10:25:22.647Z,42.17
2022-11-28T10:27:50.837Z,38.88
2022-11-28T10:32:57.661Z,40.05
2022-11-28T10:35:52.094Z,37.15
2022-11-28T10:38:25.572Z,39.83
2022-11-28T10:40:59.310Z,46.45
2022-11-28T10:43:41.154Z,39.70
2022-11-28T10:46:33.599Z,34.17
2022-11-28T10:49:19.927Z,30.67
2022-11-28T10:52:02.644Z,32.72
2022-11-28T10:54:44.781Z,30.33
2022-11-28T10:57:33.370Z,26.00
2022-11-28T11:00:15.282Z,24.83
2022-11-28T11:02:48.095Z,31.20
2022-11-28T11:05:36.393Z,24.23
2022-11-28T11:08:27.085Z,27.90
2022-11-28T11:11:12.835Z,19.45
2022-11-28T11:13:58.320Z,24.45
2022-11-28T11:16:26.160Z,25.05
2022-11-28T11:18:55.904Z,23.48
2022-11-28T11:21:25.904Z,21.45
2022-11-28T11:24:16.010Z,27.17
2022-11-28T11:26:46.921Z,19.55
2022-11-28T11:29:32.697Z,29.98
2022-11-28T11:32:03.648Z,17.38
2022-11-28T11:34:43.311Z,19.45
2022-11-28T11:37:32.530Z,15.77
2022-11-28T11:40:01.536Z,18.33
2022-11-28T11:42:32.988Z,15.82
2022-11-28T11:45:36.389Z,16.60
2022-11-28T11:48:04.389Z,20.92
2022-11-28T11:50:32.986Z,14.32
2022-11-28T11:53:13.645Z,21.92
2022-11-28T11:55:52.750Z,19.98
2022-11-28T11:58:26.716Z,19.13
2022-11-28T12:00:57.815Z,19.85
2022-11-28T12:03:39.701Z,17.17
2022-11-28T12:06:15.239Z,16.23
2022-11-28T12:09:18.154Z,18.48
2022-11-28T12:11:51.815Z,13.45
2022-11-28T12:14:34.602Z,19.48
2022-11-28T12:20:39.153Z,19.23
2022-11-28T12:23:31.290Z,16.42
2022-11-28T12:26:27.560Z,19.23
2022-11-28T12:29:21.601Z,12.70
2022-11-28T12:32:25.646Z,23.55
2022-11-28T12:35:23.616Z,26.70
2022-11-28T12:38:12.939Z,15.40
2022-11-28T12:40:59.263Z,18.02
2022-11-28T12:43:52.770Z,14.07
2022-11-28T12:46:27.002Z,11.80
2022-11-28T12:49:10.727Z,10.25
2022-11-28T12:51:56.864Z,20.42
2022-11-28T12:54:36.586Z,14.25
2022-11-28T12:57:15.662Z,18.77
2022-11-28T13:00:09.772Z,16.23
2022-11-28T13:03:08.036Z,13.73
2022-11-28T13:06:12.935Z,14.13
2022-11-28T13:08:48.528Z,16.92
2022-11-28T13:11:36.815Z,17.67
2022-11-28T13:17:04.443Z,15.10
2022-11-28T13:19:44.148Z,21.10
2022-11-28T13:22:16.278Z,20.08
2022-11-28T13:24:49.935Z,17.88
2022-11-28T13:27:23.793Z,22.15
2022-11-28T13:29:53.932Z,19.13
2022-11-28T13:32:43.276Z,18.70
2022-11-28T13:35:16.389Z,17.98
2022-11-28T13:39:08.274Z,23.60
2022-11-28T13:42:21.406Z,18.63
2022-11-28T13:44:59.815Z,20.70
2022-11-28T13:47:34.944Z,21.90
2022-11-28T13:50:30.531Z,16.50
2022-11-28T13:56:41.887Z,16.40
2022-11-28T14:00:13.403Z,20.55
2022-11-28T14:02:51.448Z,19.55
2022-11-28T14:05:38.077Z,17.75
2022-11-28T14:08:07.308Z,25.95
2022-11-28T14:10:57.073Z,19.35
2022-11-28T14:13:54.432Z,29.08
2022-11-28T14:16:39.833Z,28.58
2022-11-28T14:19:32.543Z,30.77
2022-11-28T14:22:18.942Z,32.67
2022-11-28T14:28:44.649Z,34.95
2022-11-28T14:31:15.355Z,32.63
2022-11-28T14:33:45.023Z,28.88
2022-11-28T14:36:34.326Z,29.42
2022-11-28T14:39:34.639Z,27.13
2022-11-28T14:42:05.225Z,26.23
2022-11-28T14:44:54.634Z,33.58
2022-11-28T14:47:35.023Z,30.70
2022-11-28T14:50:05.303Z,28.73
2022-11-28T14:52:39.397Z,26.98
2022-11-28T14:55:12.179Z,25.25
2022-11-28T14:57:52.754Z,25.92
2022-11-28T15:00:40.921Z,25.88
2022-11-28T15:03:26.841Z,16.88
2022-11-28T15:06:02.317Z,21.13
2022-11-28T15:08:39.320Z,17.45
2022-11-28T15:11:21.613Z,21.42
2022-11-28T15:14:08.270Z,22.50
2022-11-28T15:16:45.147Z,18.13
2022-11-28T15:19:20.496Z,19.48
2022-11-28T15:21:51.189Z,23.55
2022-11-28T15:24:31.130Z,25.15
2022-11-28T15:27:19.131Z,27.90
2022-11-28T15:30:20.309Z,22.58
2022-11-28T15:32:48.343Z,17.25
2022-11-28T15:35:18.800Z,23.67
2022-11-28T15:37:55.917Z,16.33
2022-11-28T15:40:37.929Z,14.25
2022-11-28T15:43:12.523Z,19.27
2022-11-28T15:45:42.680Z,18.63
2022-11-28T15:48:46.984Z,20.67
2022-11-28T15:51:32.766Z,13.52
2022-11-28T15:54:21.890Z,16.75
2022-11-28T15:56:59.712Z,14.05
2022-11-28T15:59:29.265Z,15.05
2022-11-28T16:02:02.264Z,16.95
2022-11-28T16:04:30.822Z,17.00
2022-11-28T16:07:01.150Z,17.00
2022-11-28T16:09:35.617Z,28.92
2022-11-28T16:12:05.134Z,34.10
2022-11-28T16:14:44.594Z,56.35
2022-11-28T16:17:20.331Z,42.30
2022-11-28T16:19:52.848Z,32.58
2022-11-28T16:22:23.152Z,39.28
2022-11-28T16:25:00.047Z,51.55
2022-11-28T16:27:36.252Z,47.00
2022-11-28T16:30:31.698Z,36.50
2022-11-28T16:32:59.654Z,35.03
2022-11-28T16:35:40.475Z,34.60
2022-11-28T16:38:25.424Z,31.45
2022-11-28T16:41:00.709Z,36.33
2022-11-28T16:43:52.343Z,24.60
2022-11-28T16:46:27.150Z,31.77
2022-11-28T16:48:57.493Z,33.15
2022-11-28T16:51:35.210Z,35.72
2022-11-28T16:54:27.138Z,40.38
2022-11-28T16:57:09.777Z,49.10
2022-11-28T16:59:37.485Z,45.28
2022-11-28T17:02:17.079Z,54.80
2022-11-28T17:04:48.755Z,51.67
2022-11-28T17:07:21.285Z,54.80
2022-11-28T17:09:49.945Z,49.95
2022-11-28T17:12:34.577Z,55.40
2022-11-28T17:15:02.324Z,55.55
2022-11-28T17:17:30.750Z,60.45
2022-11-28T17:19:58.285Z,52.92
2022-11-28T17:22:40.549Z,63.15
2022-11-28T17:25:16.220Z,67.10
2022-11-28T17:27:44.278Z,62.80
2022-11-28T17:30:16.142Z,61.72
2022-11-28T17:32:43.678Z,55.40
2022-11-28T17:35:19.714Z,54.97
2022-11-28T17:37:47.389Z,54.20
2022-11-28T17:40:33.183Z,64.43
2022-11-28T17:43:01.716Z,54.92
2022-11-28T17:45:32.275Z,59.10
2022-11-28T17:47:59.701Z,64.82
2022-11-28T17:50:28.591Z,65.55
2022-11-28T17:55:23.574Z,84.28
2022-11-28T17:57:51.075Z,78.68
2022-11-28T18:00:18.822Z,65.72
2022-11-28T18:02:46.229Z,54.50
2022-11-28T18:05:13.778Z,56.55
2022-11-28T18:07:41.403Z,46.45
2022-11-28T18:10:12.369Z,55.08
2022-11-28T18:15:10.447Z,46.03
2022-11-28T18:17:38.549Z,50.90
2022-11-28T18:20:06.929Z,75.32
2022-11-28T18:22:34.557Z,64.10
2022-11-28T18:25:02.985Z,58.95
2022-11-28T18:27:30.654Z,65.00
2022-11-28T18:29:58.284Z,70.05
2022-11-28T18:32:25.879Z,64.72
2022-11-28T18:34:53.785Z,64.75
2022-11-28T18:37:21.366Z,71.47
2022-11-28T18:39:49.117Z,43.55
2022-11-28T18:42:20.547Z,32.55
2022-11-28T18:44:48.219Z,28.15
2022-11-28T18:47:15.612Z,22.40
2022-11-28T18:49:43.622Z,25.33
2022-11-28T18:52:11.269Z,24.05
2022-11-28T18:54:38.991Z,24.33
2022-11-28T18:57:08.152Z,22.60
2022-11-28T18:59:35.704Z,12.93
2022-11-28T19:02:03.498Z,21.80
2022-11-28T19:04:31.338Z,11.85
2022-11-28T19:07:00.754Z,18.65
2022-11-28T19:09:28.202Z,16.55
2022-11-28T19:11:55.872Z,19.17
2022-11-28T19:14:24.225Z,10.10
2022-11-28T19:16:54.036Z,15.75
2022-11-28T19:19:21.849Z,14.98
2022-11-28T19:21:50.373Z,10.27
2022-11-28T19:24:18.784Z,13.10
2022-11-28T19:26:46.249Z,24.38
2022-11-28T19:29:13.789Z,22.25
2022-11-28T19:31:41.866Z,16.38
2022-11-28T19:34:18.988Z,12.75
2022-11-28T19:36:49.956Z,19.60
2022-11-28T19:39:20.682Z,21.60
2022-11-28T19:41:50.300Z,18.50
2022-11-28T19:44:19.942Z,22.65
2022-11-28T19:46:48.186Z,22.63
2022-11-28T19:49:21.297Z,26.85
2022-11-28T19:51:50.341Z,22.60
2022-11-28T19:54:19.688Z,23.75
2022-11-28T19:56:48.154Z,25.75
2022-11-28T19:59:16.313Z,26.63
2022-11-28T20:01:44.205Z,36.22
2022-11-28T20:04:12.438Z,65.72
2022-11-28T20:06:39.904Z,46.22
2022-11-28T20:09:11.707Z,40.10
2022-11-28T20:11:43.186Z,45.20
2022-11-28T20:14:17.102Z,46.75
2022-11-28T20:16:45.681Z,42.55
2022-11-28T20:19:15.100Z,56.17
2022-11-28T20:21:46.210Z,45.42
2022-11-28T20:24:15.754Z,51.00
2022-11-28T20:26:45.153Z,57.08
2022-11-28T20:29:15.785Z,52.03
2022-11-28T20:31:47.553Z,55.10
2022-11-28T20:34:18.557Z,45.38
2022-11-28T20:36:51.817Z,45.72
2022-11-28T20:39:19.805Z,40.97
2022-11-28T20:41:47.335Z,56.42
2022-11-28T20:44:15.072Z,46.45
2022-11-28T20:46:43.976Z,45.63
2022-11-28T20:49:11.813Z,37.30
2022-11-28T20:51:39.483Z,40.97
2022-11-28T20:54:07.415Z,42.50
2022-11-28T20:57:05.158Z,35.03
2022-11-28T20:59:27.140Z,47.92
2022-11-28T21:01:54.703Z,46.70
2022-11-28T21:04:22.303Z,38.95
2022-11-28T21:06:49.873Z,43.40
2022-11-28T21:09:20.767Z,41.17
2022-11-28T21:11:58.050Z,45.65
2022-11-28T21:16:55.499Z,41.63
2022-11-28T21:19:23.024Z,41.42
2022-11-28T21:21:50.440Z,44.00
2022-11-28T21:24:17.970Z,43.08
2022-11-28T21:26:51.369Z,45.30
2022-11-28T21:29:21.573Z,37.08
2022-11-28T21:31:49.154Z,56.00
2022-11-28T21:34:17.540Z,54.45
2022-11-28T21:36:45.396Z,54.70
2022-11-28T21:39:15.361Z,58.47
2022-11-28T21:41:43.049Z,50.85
2022-11-28T21:44:10.538Z,44.75
2022-11-28T21:46:38.591Z,53.25
2022-11-28T21:49:06.069Z,56.08
2022-11-28T21:51:38.251Z,52.42
2022-11-28T21:54:06.562Z,42.53
2022-11-28T21:56:34.729Z,50.05
2022-11-28T21:59:02.423Z,40.03
2022-11-28T22:01:30.144Z,40.30
2022-11-28T22:06:30.159Z,38.42
2022-11-28T22:08:57.917Z,41.75
2022-11-28T22:11:25.725Z,45.83
2022-11-28T22:13:53.245Z,40.40
2022-11-28T22:16:26.692Z,40.38
2022-11-28T22:18:56.442Z,37.00
2022-11-28T22:24:12.158Z,42.83
2022-11-28T22:26:39.611Z,39.85
2022-11-28T22:29:07.031Z,38.00
2022-11-28T22:31:34.698Z,34.40
2022-11-28T22:34:02.211Z,32.78
2022-11-28T22:36:32.015Z,31.65
2022-11-28T22:38:59.545Z,35.53
2022-11-28T22:41:29.766Z,37.03
2022-11-28T22:44:01.510Z,31.05
2022-11-28T22:46:31.927Z,36.90
2022-11-28T22:49:01.193Z,38.13
2022-11-28T22:51:29.560Z,35.35
2022-11-28T22:53:59.644Z,42.13
2022-11-28T22:56:31.682Z,39.97
2022-11-28T22:59:00.116Z,37.00
2022-11-28T23:01:32.043Z,45.28
2022-11-28T23:04:01.146Z,38.75
2022-11-28T23:06:32.621Z,42.38
2022-11-28T23:09:03.665Z,39.67
2022-11-28T23:11:33.271Z,41.78
2022-11-28T23:14:02.104Z,38.92
2022-11-28T23:16:33.371Z,44.38
2022-11-28T23:19:03.841Z,37.35
2022-11-28T23:21:35.610Z,47.03
2022-11-28T23:24:05.517Z,37.30
2022-11-28T23:26:34.539Z,44.00
2022-11-28T23:29:04.715Z,38.60
2022-11-28T23:31:34.743Z,40.72
2022-11-28T23:34:02.729Z,40.85
2022-11-28T23:36:41.522Z,39.58
2022-11-28T23:39:19.040Z,39.42
2022-11-28T23:41:47.033Z,34.40
2022-11-28T23:44:15.960Z,36.97
2022-11-28T23:46:43.828Z,34.15
2022-11-28T23:49:12.258Z,40.88
2022-11-28T23:51:40.547Z,34.92
2022-11-28T23:54:09.498Z,34.15
2022-11-28T23:56:38.654Z,31.90
2022-11-28T23:59:07.735Z,37.50
